createdAt,value
2018-09-20T00:03:35.774Z,13.80
2018-09-20T00:07:39.993Z,13.70
2018-09-20T00:11:44.232Z,13.70
2018-09-20T00:15:48.481Z,13.70
2018-09-20T00:19:52.786Z,13.60
2018-09-20T00:23:57.041Z,13.60
2018-09-20T00:28:01.309Z,13.70
2018-09-20T00:32:05.648Z,13.80
2018-09-20T00:36:09.889Z,13.70
2018-09-20T00:40:14.268Z,13.60
2018-09-20T00:44:18.560Z,13.50
2018-09-20T00:48:22.966Z,13.40
2018-09-20T00:52:27.195Z,13.40
2018-09-20T00:56:31.494Z,13.40
2018-09-20T01:00:35.824Z,13.40
2018-09-20T01:04:40.153Z,13.50
2018-09-20T01:08:44.332Z,13.40
2018-09-20T01:12:48.656Z,13.40
2018-09-20T01:16:52.969Z,13.30
2018-09-20T01:20:57.174Z,13.40
2018-09-20T01:25:01.401Z,13.30
2018-09-20T01:29:05.648Z,13.30
2018-09-20T01:33:09.856Z,13.30
2018-09-20T01:37:14.137Z,13.40
2018-09-20T01:41:18.330Z,13.20
2018-09-20T01:45:22.566Z,13.20
2018-09-20T01:49:26.852Z,13.20
2018-09-20T01:53:31.093Z,13.10
2018-09-20T01:57:35.344Z,13.10
2018-09-20T02:01:39.739Z,13.10
2018-09-20T02:05:44.069Z,13.10
2018-09-20T02:09:48.276Z,13.20
2018-09-20T02:13:52.562Z,13.20
2018-09-20T02:17:56.785Z,13.10
2018-09-20T02:22:00.996Z,13.00
2018-09-20T02:26:05.278Z,12.90
2018-09-20T02:30:09.530Z,12.90
2018-09-20T02:34:13.931Z,12.90
2018-09-20T02:38:18.117Z,12.90
2018-09-20T02:42:22.373Z,13.00
2018-09-20T02:46:26.555Z,12.90
2018-09-20T02:50:30.919Z,12.80
2018-09-20T02:54:35.132Z,12.80
2018-09-20T02:58:39.329Z,12.80
2018-09-20T03:02:43.538Z,12.70
2018-09-20T03:06:47.784Z,12.60
2018-09-20T03:10:52.317Z,12.60
2018-09-20T03:14:56.544Z,12.60
2018-09-20T03:19:00.796Z,12.70
2018-09-20T03:23:05.066Z,12.70
2018-09-20T03:27:09.511Z,12.60
2018-09-20T03:31:13.938Z,12.50
2018-09-20T03:35:18.213Z,12.50
2018-09-20T03:39:22.409Z,12.40
2018-09-20T03:43:26.623Z,12.40
2018-09-20T03:47:30.864Z,12.50
2018-09-20T03:51:35.187Z,12.40
2018-09-20T03:55:39.500Z,12.40
2018-09-20T03:59:43.712Z,12.40
2018-09-20T04:03:48.238Z,12.30
2018-09-20T04:07:52.955Z,12.30
2018-09-20T04:11:57.220Z,12.30
2018-09-20T04:16:01.599Z,12.30
2018-09-20T04:20:06.633Z,12.20
2018-09-20T04:24:10.889Z,12.20
2018-09-20T04:28:15.082Z,12.20
2018-09-20T04:32:19.442Z,12.10
2018-09-20T04:36:23.729Z,12.10
2018-09-20T04:40:28.197Z,12.10
2018-09-20T04:44:32.429Z,12.10
2018-09-20T04:48:36.654Z,12.10
2018-09-20T04:52:40.886Z,12.20
2018-09-20T04:56:45.115Z,12.20
2018-09-20T05:00:49.337Z,12.10
2018-09-20T05:04:53.680Z,12.10
2018-09-20T05:08:57.911Z,12.20
2018-09-20T05:13:02.553Z,12.20
2018-09-20T05:17:06.924Z,12.20
2018-09-20T05:21:11.266Z,12.20
2018-09-20T05:25:15.508Z,12.30
2018-09-20T05:29:19.765Z,12.30
2018-09-20T05:33:24.164Z,12.40
2018-09-20T05:37:28.545Z,12.40
2018-09-20T05:41:32.792Z,12.50
2018-09-20T05:45:37.108Z,12.70
2018-09-20T05:49:41.514Z,12.60
2018-09-20T05:53:45.743Z,12.70
2018-09-20T05:57:50.166Z,12.80
2018-09-20T06:01:54.499Z,12.90
2018-09-20T06:05:59.023Z,13.00
2018-09-20T06:10:03.265Z,13.00
2018-09-20T06:14:07.700Z,13.20
2018-09-20T06:18:11.995Z,13.20
2018-09-20T06:22:16.454Z,13.40
2018-09-20T06:26:20.900Z,13.50
2018-09-20T06:30:25.187Z,13.70
2018-09-20T06:35:07.929Z,13.80
2018-09-20T06:39:13.174Z,14.10
2018-09-20T06:43:17.407Z,14.30
2018-09-20T06:47:21.745Z,14.50
2018-09-20T06:51:26.002Z,14.80
2018-09-20T06:55:30.197Z,15.00
2018-09-20T06:59:34.530Z,15.30
2018-09-20T07:03:38.752Z,15.50
2018-09-20T07:07:43.040Z,15.80
2018-09-20T07:11:47.252Z,16.00
2018-09-20T07:15:51.531Z,16.40
2018-09-20T07:19:55.740Z,16.70
2018-09-20T07:23:59.969Z,17.00
2018-09-20T07:28:04.192Z,17.30
2018-09-20T07:32:08.538Z,17.70
2018-09-20T07:36:12.776Z,18.10
2018-09-20T07:40:18.185Z,18.50
2018-09-20T07:44:22.445Z,18.90
2018-09-20T07:48:26.749Z,19.10
2018-09-20T07:52:30.967Z,19.30
2018-09-20T07:56:35.306Z,19.70
2018-09-20T08:00:39.609Z,19.90
2018-09-20T08:04:43.873Z,20.10
2018-09-20T08:08:48.323Z,20.30
2018-09-20T08:12:52.592Z,20.80
2018-09-20T08:16:56.898Z,21.10
2018-09-20T08:21:12.610Z,21.20
2018-09-20T08:25:16.898Z,21.60
2018-09-20T08:29:21.155Z,21.70
2018-09-20T08:33:25.520Z,22.10
2018-09-20T08:37:29.785Z,22.10
2018-09-20T08:41:34.148Z,22.30
2018-09-20T08:45:38.463Z,22.60
2018-09-20T08:49:42.706Z,22.90
2018-09-20T08:53:47.068Z,23.50
2018-09-20T08:57:55.626Z,24.00
2018-09-20T09:01:59.871Z,25.20
2018-09-20T09:06:04.096Z,26.00
2018-09-20T09:10:08.469Z,26.10
2018-09-20T09:14:12.695Z,26.30
2018-09-20T09:18:17.074Z,26.70
2018-09-20T09:22:21.277Z,27.10
2018-09-20T09:26:25.647Z,27.50
2018-09-20T09:30:29.868Z,27.40
2018-09-20T09:34:34.232Z,26.60
2018-09-20T09:38:38.498Z,27.60
2018-09-20T09:42:42.789Z,27.10
2018-09-20T09:46:47.000Z,26.70
2018-09-20T09:50:51.343Z,26.70
2018-09-20T09:54:55.786Z,27.20
2018-09-20T09:59:00.015Z,27.10
2018-09-20T10:03:04.339Z,28.30
2018-09-20T10:07:08.700Z,27.20
2018-09-20T10:11:12.924Z,27.10
2018-09-20T10:15:17.507Z,26.80
2018-09-20T10:19:21.866Z,27.40
2018-09-20T10:23:26.051Z,28.80
2018-09-20T10:27:30.501Z,28.70
2018-09-20T10:31:34.709Z,28.90
2018-09-20T10:35:39.072Z,29.10
2018-09-20T10:39:43.267Z,29.90
2018-09-20T10:43:47.593Z,29.60
2018-09-20T10:47:51.772Z,30.10
2018-09-20T10:51:56.005Z,30.30
2018-09-20T10:56:00.376Z,31.30
2018-09-20T11:00:04.766Z,32.20
2018-09-20T11:04:09.141Z,31.90
2018-09-20T11:08:13.408Z,32.50
2018-09-20T11:12:17.713Z,32.10
2018-09-20T11:16:21.943Z,31.60
2018-09-20T11:20:26.298Z,31.50
2018-09-20T11:24:30.629Z,31.90
2018-09-20T11:28:35.017Z,32.10
2018-09-20T11:32:39.248Z,32.50
2018-09-20T11:36:43.792Z,32.80
2018-09-20T11:40:48.296Z,33.50
2018-09-20T11:44:52.701Z,34.00
2018-09-20T11:48:57.049Z,32.70
2018-09-20T11:53:01.309Z,31.00
2018-09-20T11:57:05.538Z,29.90
2018-09-20T12:01:09.735Z,30.10
2018-09-20T12:05:14.097Z,32.40
2018-09-20T12:09:18.353Z,34.20
2018-09-20T12:13:22.581Z,34.90
2018-09-20T12:17:26.905Z,34.30
2018-09-20T12:21:31.128Z,34.40
2018-09-20T12:25:35.657Z,33.50
2018-09-20T12:29:39.921Z,34.10
2018-09-20T12:33:44.178Z,34.30
2018-09-20T12:37:48.621Z,34.20
2018-09-20T12:41:52.809Z,34.00
2018-09-20T12:45:57.184Z,35.60
2018-09-20T12:50:01.438Z,37.20
2018-09-20T12:54:05.865Z,36.60
2018-09-20T12:58:10.166Z,34.70
2018-09-20T13:02:15.793Z,35.50
2018-09-20T13:06:20.298Z,32.60
2018-09-20T13:10:25.167Z,30.80
2018-09-20T13:14:29.549Z,29.10
2018-09-20T13:18:33.755Z,30.50
2018-09-20T13:22:38.080Z,33.00
2018-09-20T13:26:42.320Z,35.10
2018-09-20T13:30:46.674Z,36.00
2018-09-20T13:34:52.404Z,33.60
2018-09-20T13:38:56.918Z,33.70
2018-09-20T13:43:01.160Z,34.80
2018-09-20T13:47:05.701Z,35.60
2018-09-20T13:51:09.957Z,36.20
2018-09-20T13:55:14.165Z,37.30
2018-09-20T13:59:18.410Z,34.80
2018-09-20T14:03:22.639Z,32.20
2018-09-20T14:07:26.853Z,32.00
2018-09-20T14:11:31.174Z,31.70
2018-09-20T14:15:35.624Z,31.70
2018-09-20T14:19:39.779Z,32.20
2018-09-20T14:23:44.233Z,30.20
2018-09-20T14:27:48.525Z,30.70
2018-09-20T14:31:52.912Z,32.90
2018-09-20T14:35:57.320Z,33.70
2018-09-20T14:40:01.588Z,34.80
2018-09-20T14:44:06.089Z,33.30
2018-09-20T14:48:10.318Z,30.70
2018-09-20T14:52:14.625Z,30.60
2018-09-20T14:56:19.177Z,28.80
2018-09-20T15:00:24.225Z,27.70
2018-09-20T15:04:31.112Z,26.70
2018-09-20T15:08:35.409Z,26.10
2018-09-20T15:12:39.624Z,25.80
2018-09-20T15:16:44.009Z,25.50
2018-09-20T15:20:48.612Z,25.20
2018-09-20T15:24:52.799Z,24.90
2018-09-20T15:28:58.065Z,24.40
2018-09-20T15:33:02.656Z,24.10
2018-09-20T15:37:06.940Z,23.70
2018-09-20T15:41:13.224Z,23.70
2018-09-20T15:45:18.434Z,23.40
2018-09-20T15:49:22.807Z,23.20
2018-09-20T15:53:32.518Z,22.90
2018-09-20T15:57:45.021Z,22.80
2018-09-20T16:01:54.809Z,22.50
2018-09-20T16:05:59.300Z,22.20
2018-09-20T16:10:03.624Z,21.90
2018-09-20T16:14:08.270Z,21.80
2018-09-20T16:18:13.493Z,21.50
2018-09-20T16:22:17.913Z,21.30
2018-09-20T16:26:22.123Z,21.10
2018-09-20T16:30:37.694Z,20.90
2018-09-20T16:35:19.221Z,20.60
2018-09-20T16:39:24.470Z,20.50
2018-09-20T16:43:28.792Z,20.40
2018-09-20T16:47:33.223Z,20.20
2018-09-20T16:51:37.641Z,20.00
2018-09-20T16:55:41.978Z,19.80
2018-09-20T16:59:46.715Z,19.60
2018-09-20T17:03:51.311Z,19.40
2018-09-20T17:07:55.895Z,19.20
2018-09-20T17:12:00.421Z,19.10
2018-09-20T17:16:04.835Z,18.90
2018-09-20T17:20:09.071Z,18.80
2018-09-20T17:24:13.547Z,18.60
2018-09-20T17:28:17.881Z,18.50
2018-09-20T17:32:22.231Z,18.30
2018-09-20T17:36:26.747Z,18.20
2018-09-20T17:40:32.951Z,18.00
2018-09-20T17:44:37.157Z,18.00
2018-09-20T17:48:41.494Z,17.80
2018-09-20T17:52:46.402Z,17.80
2018-09-20T17:56:51.367Z,17.70
2018-09-20T18:00:55.655Z,17.60
2018-09-20T18:05:00.181Z,17.50
2018-09-20T18:09:05.002Z,17.40
2018-09-20T18:13:09.512Z,17.30
2018-09-20T18:17:13.744Z,17.20
2018-09-20T18:21:18.061Z,17.20
2018-09-20T18:25:22.523Z,17.20
2018-09-20T18:29:27.213Z,17.10
2018-09-20T18:33:35.828Z,17.00
2018-09-20T18:37:45.839Z,16.90
2018-09-20T18:46:51.919Z,16.80
2018-09-20T18:50:56.630Z,16.70
2018-09-20T18:55:01.581Z,16.60
2018-09-20T18:59:08.423Z,16.60
2018-09-20T19:03:13.546Z,16.50
2018-09-20T19:07:27.328Z,16.40
2018-09-20T19:11:32.064Z,16.40
2018-09-20T19:15:37.084Z,16.40
2018-09-20T19:19:41.762Z,16.30
2018-09-20T19:23:47.104Z,16.20
2018-09-20T19:27:51.809Z,16.20
2018-09-20T19:31:57.129Z,16.10
2018-09-20T19:36:02.072Z,16.10
2018-09-20T19:40:06.843Z,16.10
2018-09-20T19:52:49.099Z,15.90
2018-09-20T19:56:53.537Z,15.80
2018-09-20T20:00:59.025Z,15.80
2018-09-20T20:05:03.835Z,15.70
2018-09-20T20:09:13.135Z,15.70
2018-09-20T20:13:17.591Z,15.60
2018-09-20T20:17:22.307Z,15.60
2018-09-20T20:21:26.517Z,15.50
2018-09-20T20:25:30.809Z,15.50
2018-09-20T20:29:35.019Z,15.50
2018-09-20T20:33:39.482Z,15.40
2018-09-20T20:37:43.752Z,15.40
2018-09-20T20:41:48.241Z,15.30
2018-09-20T20:45:52.841Z,15.30
2018-09-20T20:49:57.136Z,15.30
2018-09-20T20:54:01.426Z,15.20
2018-09-20T20:58:05.739Z,15.20
2018-09-20T21:02:09.938Z,15.10
2018-09-20T21:06:14.340Z,15.10
2018-09-20T21:10:18.668Z,15.00
2018-09-20T21:14:22.992Z,15.00
2018-09-20T21:18:27.213Z,15.00
2018-09-20T21:22:31.561Z,14.90
2018-09-20T21:26:35.785Z,14.90
2018-09-20T21:30:40.091Z,14.90
2018-09-20T21:34:44.412Z,14.80
2018-09-20T21:38:48.885Z,14.80
2018-09-20T21:42:53.075Z,14.80
2018-09-20T21:46:57.395Z,14.70
2018-09-20T21:51:01.672Z,14.70
2018-09-20T21:55:06.325Z,14.60
2018-09-20T21:59:10.662Z,14.60
2018-09-20T22:03:14.957Z,14.60
2018-09-20T22:07:19.260Z,14.50
2018-09-20T22:11:23.753Z,14.50
2018-09-20T22:15:29.518Z,14.50
2018-09-20T22:19:33.965Z,14.40
2018-09-20T22:23:38.625Z,14.40
2018-09-20T22:27:43.264Z,14.40
2018-09-20T22:31:47.936Z,14.30
2018-09-20T22:35:52.612Z,14.30
2018-09-20T22:39:57.337Z,14.30
2018-09-20T22:44:01.888Z,14.20
2018-09-20T22:48:06.691Z,14.20
2018-09-20T22:52:11.366Z,14.20
2018-09-20T22:56:15.939Z,14.10
2018-09-20T23:00:23.285Z,14.00
2018-09-20T23:04:27.724Z,14.00
2018-09-20T23:08:32.516Z,14.00
2018-09-20T23:12:37.069Z,14.00
2018-09-20T23:16:41.920Z,14.00
2018-09-20T23:20:46.153Z,14.00
2018-09-20T23:24:50.387Z,13.90
2018-09-20T23:28:54.659Z,13.90
2018-09-20T23:32:59.124Z,13.90
2018-09-20T23:37:03.348Z,13.90
2018-09-20T23:41:07.619Z,13.80
2018-09-20T23:45:11.912Z,13.80
2018-09-20T23:49:16.161Z,13.80
2018-09-20T23:53:20.402Z,13.70
2018-09-20T23:57:24.725Z,13.70
